ボードー の空港の天気 - METARとTAF

Bodo Vi ( ENBO / BOO ) - ノルウェー ヌールラン県ボードー
飛行場実況気象(Metar)
観測時間08/22 18:50 CEST (08/22 16:50 UTC)
風向・風速北西 2m/s
視程10km以上
天気現象
少しの雲 雲底高度 760m
気温14℃
湿度72%
気圧1016hPa
METARENBO 221650Z 32004KT 9999 FEW025 14/09 Q1016 NOSIG
過去の天気等 Google飛行場航空写真 Wunderground天気予報

過去48時間のMETAR

飛行場予報(TAF)
発表時間: -
22日18時 CEST ~ 22日21時 CEST に徐々に
風向・風速東 6m/s
TAF ENBO 2212/2312 27008KT 9999 FEW015TCU SCT030
BECMG 2216/2219 09012KT